首页
METAR-TAF:

METAR-TAF

机场 :

法阿國際機場

大溪地, 法属波利尼西亚

纬度: 17-33S, 经度: 149-37W, 海拔: 2米

当前天气观测

该预报发布于12分钟前的18:30 UTC
风速7节,风向东转东北
温度 27°C
湿度 70%
气压 1012 hPa
能见度10公里或以上
少量云层高于2300英尺
散云层高于4000英尺
多云层高于10000英尺
附近有阵雨

METAR: NTAA 261830Z 06007KT 9999 VCSH FEW023 SCT040 BKN100 27/21 Q1012 NOSIG

时间: 08:42 (18:42 UTC)

预报

该预报发布于1小时和42分钟前的17:00 UTC
预报有效从26日的 18点(UTC)到 27日的 24点(UTC)
风速5节,风向多变
能见度10公里或以上
少量云层高于2000英尺
散云层高于5000英尺

TAF: NTAA 261700Z 2618/2724 VRB05KT 9999 FEW020 SCT050

超过4000个机场的气象观测和天气预报(METAR&TAF报告)。

可查询的气象台以黄色和红色小点在地图上表示。

将鼠标移到小点上方,可查看气象台名称。

然后点击查看天气观测和预报。

如需切换地图:点击带黑十字的绿色按钮放大地图;点击带横线的绿色按钮缩小地图;或者点击绿色箭头查看邻近地区的地图。


METAR-TAF: